Time;durP1;ratioP1;P1;durP2;ratioP2;P2;SDS_P1;SDS_P2;PMS_P1;PMS_P2;Temp;Humidity;BMP_temperature;BMP_pressure;BME280_temperature;BME280_humidity;BME280_pressure;Samples;Min_cycle;Max_cycle;Signal;HPM_P1;HPM_P2
2022/11/29 00:00:06;;;;;;;16.98;12.50;;;8.70;99.90;8.70;99451.00;;;;338934;28;86300;-90
2022/11/29 00:00:18;;;;;;;19.25;13.48;;;8.70;99.90;8.80;99455.00;;;;339925;28;91030;-90
2022/11/29 00:00:30;;;;;;;21.85;14.60;;;8.60;99.90;8.90;99442.00;;;;340296;28;85955;-90
2022/11/29 00:00:49;;;;;;;24.95;15.57;;;8.60;99.90;8.90;99452.00;;;;338484;28;91794;-90
2022/11/29 00:01:01;;;;;;;24.83;17.92;;;8.60;99.90;9.00;99444.00;;;;337687;28;86085;-90
2022/11/29 00:01:16;;;;;;;23.50;18.48;;;8.60;99.90;8.90;99452.00;;;;338521;28;92883;-91
2022/11/29 00:01:29;;;;;;;23.15;18.30;;;8.60;99.90;8.90;99450.00;;;;340227;28;87514;-91
2022/11/29 00:01:41;;;;;;;26.08;19.83;;;8.60;99.90;9.00;99448.00;;;;337373;28;91843;-91
2022/11/29 00:01:53;;;;;;;25.35;20.13;;;8.70;99.90;8.90;99442.00;;;;340367;28;87345;-90
2022/11/29 00:02:05;;;;;;;23.20;19.00;;;8.60;99.90;8.80;99438.00;;;;341406;28;90837;-91
2022/11/29 00:02:17;;;;;;;21.90;18.23;;;8.60;99.90;8.70;99438.00;;;;340376;28;86042;-90
2022/11/29 00:02:29;;;;;;;23.70;19.08;;;8.60;99.90;8.80;99434.00;;;;340070;28;90958;-90
2022/11/29 00:02:41;;;;;;;24.80;19.67;;;8.60;99.90;8.80;99437.00;;;;341593;28;86119;-90
2022/11/29 00:02:53;;;;;;;24.40;19.25;;;8.60;99.90;8.80;99436.00;;;;337454;28;90562;-90
2022/11/29 00:03:05;;;;;;;25.55;19.27;;;8.60;99.90;8.80;99448.00;;;;340350;28;86202;-90
2022/11/29 00:03:17;;;;;;;25.73;19.75;;;8.60;99.90;8.80;99439.00;;;;339959;28;92692;-90
2022/11/29 00:03:29;;;;;;;25.92;20.27;;;8.50;99.90;8.90;99443.00;;;;344083;28;86231;-90
2022/11/29 00:03:41;;;;;;;26.42;20.50;;;8.60;99.90;8.80;99439.00;;;;338603;28;90977;-91
2022/11/29 00:03:53;;;;;;;27.88;20.73;;;8.60;99.90;8.80;99433.00;;;;340359;28;84861;-90
2022/11/29 00:04:05;;;;;;;29.70;20.58;;;8.50;99.90;8.70;99447.00;;;;341363;28;90756;-90
2022/11/29 00:04:17;;;;;;;27.35;20.00;;;8.60;99.90;8.80;99439.00;;;;340359;28;85927;-90
2022/11/29 00:04:29;;;;;;;25.35;20.30;;;8.60;99.90;9.00;99440.00;;;;341354;28;91859;-90
2022/11/29 00:04:41;;;;;;;23.08;20.13;;;8.60;99.90;9.10;99444.00;;;;338903;28;87485;-90
2022/11/29 00:04:53;;;;;;;23.63;19.20;;;8.60;99.90;9.00;99435.00;;;;339901;28;90850;-90
2022/11/29 00:05:06;;;;;;;25.45;18.67;;;8.60;99.90;8.90;99442.00;;;;340281;28;87085;-90
2022/11/29 00:05:17;;;;;;;24.98;18.38;;;8.60;99.90;9.00;99439.00;;;;342578;28;91737;-90
2022/11/29 00:05:29;;;;;;;21.30;17.60;;;8.60;99.90;9.00;99439.00;;;;342838;28;86093;-90
2022/11/29 00:05:41;;;;;;;20.05;17.92;;;8.60;99.90;9.00;99435.00;;;;342376;28;91630;-90
2022/11/29 00:05:54;;;;;;;21.80;18.35;;;8.60;99.90;9.00;99441.00;;;;340016;28;87736;-90
2022/11/29 00:06:11;;;;;;;21.63;17.85;;;8.70;99.90;9.10;99438.00;;;;341135;28;90632;-89
2022/11/29 00:06:29;;;;;;;20.95;16.65;;;8.70;99.90;9.20;99429.00;;;;338895;28;86185;-89
2022/11/29 00:06:41;;;;;;;22.42;16.70;;;8.70;99.90;9.10;99437.00;;;;338553;28;92718;-90
2022/11/29 00:06:53;;;;;;;24.02;17.42;;;8.70;99.90;9.00;99437.00;;;;345662;28;85922;-89
2022/11/29 00:07:04;;;;;;;24.42;18.35;;;8.80;99.90;8.90;99434.00;;;;342732;28;92037;-90
2022/11/29 00:07:16;;;;;;;22.98;17.75;;;8.80;99.90;9.00;99434.00;;;;341562;28;86300;-90
2022/11/29 00:07:28;;;;;;;20.83;16.35;;;8.80;99.90;9.00;99433.00;;;;341248;28;93026;-90
2022/11/29 00:07:40;;;;;;;18.23;15.40;;;8.70;99.90;8.90;99435.00;;;;340250;28;86590;-89
2022/11/29 00:07:52;;;;;;;20.73;16.63;;;8.70;99.90;8.90;99438.00;;;;341338;28;92076;-89
2022/11/29 00:08:04;;;;;;;22.90;17.40;;;8.70;99.90;8.80;99439.00;;;;343010;28;87345;-89
2022/11/29 00:08:17;;;;;;;23.33;17.60;;;8.70;99.90;9.00;99441.00;;;;344088;28;91434;-89
2022/11/29 00:08:28;;;;;;;20.20;16.38;;;8.70;99.90;9.00;99435.00;;;;342946;28;87016;-89
2022/11/29 00:08:40;;;;;;;19.45;15.60;;;8.70;99.90;8.80;99443.00;;;;338446;28;91596;-89
2022/11/29 00:08:54;;;;;;;19.52;15.57;;;8.70;99.90;8.80;99442.00;;;;342927;28;86306;-89
2022/11/29 00:09:10;;;;;;;19.55;15.90;;;8.70;99.90;8.90;99432.00;;;;337349;28;91948;-90
2022/11/29 00:09:22;;;;;;;19.23;15.80;;;8.70;99.90;9.00;99434.00;;;;341587;28;86725;-90
2022/11/29 00:09:33;;;;;;;18.65;15.52;;;8.70;99.90;8.90;99433.00;;;;338558;28;91608;-90
2022/11/29 00:09:45;;;;;;;18.48;14.55;;;8.70;99.90;9.00;99433.00;;;;343016;28;86970;-90
2022/11/29 00:09:57;;;;;;;18.98;14.80;;;8.70;99.90;8.90;99437.00;;;;342681;28;91708;-90
2022/11/29 00:10:09;;;;;;;18.30;14.30;;;8.70;99.90;8.90;99435.00;;;;340280;28;85479;-89
2022/11/29 00:10:21;;;;;;;17.80;14.02;;;8.70;99.90;8.80;99426.00;;;;342734;28;90813;-90
2022/11/29 00:10:36;;;;;;;17.95;13.35;;;8.70;99.90;8.90;99432.00;;;;340297;28;86163;-90
2022/11/29 00:10:48;;;;;;;18.70;12.98;;;8.70;99.90;8.90;99440.00;;;;341360;28;90897;-90
2022/11/29 00:12:11;;;;;;;16.73;12.25;;;8.70;99.90;9.10;99426.00;;;;344365;28;86634;-90
2022/11/29 00:12:20;;;;;;;11.20;6.97;;;8.70;99.90;9.10;99437.00;;;;343896;28;85906;-89
2022/11/29 00:12:32;;;;;;;9.82;6.32;;;8.80;99.90;9.20;99432.00;;;;341262;28;93037;-90
2022/11/29 00:12:47;;;;;;;8.23;5.25;;;8.80;99.90;9.00;99434.00;;;;344280;28;83807;-90
2022/11/29 00:12:58;;;;;;;7.28;4.95;;;8.80;99.90;9.00;99433.00;;;;342570;28;91198;-90
2022/11/29 00:13:10;;;;;;;6.82;5.28;;;8.80;99.90;9.10;99444.00;;;;341620;28;82440;-90
2022/11/29 00:13:22;;;;;;;7.97;5.60;;;8.80;99.90;8.90;99439.00;;;;342414;28;89819;-90
2022/11/29 00:13:34;;;;;;;7.75;5.35;;;8.80;99.90;9.00;99433.00;;;;340321;28;85206;-90
2022/11/29 00:13:46;;;;;;;7.70;5.40;;;8.70;99.90;9.10;99434.00;;;;341420;28;90758;-90
2022/11/29 00:13:58;;;;;;;8.00;5.85;;;8.80;99.90;9.00;99436.00;;;;342952;28;83746;-90
2022/11/29 00:14:12;;;;;;;7.18;5.85;;;8.80;99.90;9.10;99426.00;;;;341492;28;87732;-90
2022/11/29 00:14:25;;;;;;;7.20;5.80;;;8.80;99.90;9.10;99430.00;;;;343100;28;84504;-90
2022/11/29 00:14:36;;;;;;;8.48;5.85;;;8.80;99.90;9.20;99425.00;;;;337202;28;91655;-90
2022/11/29 00:14:48;;;;;;;8.85;6.00;;;8.80;99.90;9.20;99426.00;;;;341730;28;83429;-90
2022/11/29 00:15:00;;;;;;;8.35;5.72;;;8.80;99.90;9.20;99424.00;;;;338680;28;91658;-91
2022/11/29 00:15:12;;;;;;;7.65;5.03;;;8.80;99.90;9.20;99427.00;;;;342928;28;84405;-90
2022/11/29 00:15:24;;;;;;;7.88;5.22;;;8.80;99.90;9.20;99431.00;;;;341332;28;90583;-91
2022/11/29 00:15:37;;;;;;;7.88;5.65;;;8.80;99.90;9.30;99432.00;;;;341715;28;84171;-90
2022/11/29 00:15:48;;;;;;;7.85;5.95;;;8.80;99.90;9.30;99418.00;;;;344122;28;90769;-91
2022/11/29 00:16:09;;;;;;;7.53;5.80;;;8.90;99.90;9.30;99435.00;;;;340224;28;84591;-90
2022/11/29 00:16:21;;;;;;;9.18;5.72;;;8.90;99.90;9.20;99437.00;;;;341281;28;91386;-90
2022/11/29 00:16:33;;;;;;;9.73;5.93;;;8.90;99.90;9.10;99432.00;;;;340356;28;83467;-90
2022/11/29 00:16:49;;;;;;;9.75;6.18;;;8.90;99.90;9.20;99434.00;;;;341238;28;91761;-90
2022/11/29 00:17:01;;;;;;;8.32;5.60;;;8.90;99.90;9.30;99426.00;;;;343092;28;83307;-90
2022/11/29 00:17:13;;;;;;;7.07;4.95;;;8.90;99.90;9.10;99435.00;;;;341169;28;91643;-90
2022/11/29 00:17:25;;;;;;;7.32;4.55;;;8.90;99.90;9.00;99428.00;;;;341480;28;84517;-90
2022/11/29 00:17:37;;;;;;;7.15;4.43;;;8.90;99.90;9.10;99424.00;;;;342440;28;91857;-90
2022/11/29 00:17:49;;;;;;;7.45;5.03;;;8.90;99.90;9.20;99418.00;;;;341614;28;83452;-90
2022/11/29 00:18:00;;;;;;;7.05;4.90;;;8.90;99.90;9.10;99417.00;;;;339871;28;91996;-90
2022/11/29 00:18:12;;;;;;;8.30;4.80;;;8.90;99.90;9.20;99429.00;;;;340425;28;83575;-90
2022/11/29 00:18:24;;;;;;;8.50;4.95;;;8.90;99.90;9.20;99430.00;;;;341388;28;90944;-90
2022/11/29 00:18:36;;;;;;;8.25;5.43;;;8.90;99.90;9.30;99422.00;;;;341591;28;83489;-90
2022/11/29 00:18:48;;;;;;;8.70;5.55;;;8.90;99.90;9.20;99422.00;;;;341222;28;92965;-90
2022/11/29 00:19:00;;;;;;;8.18;5.35;;;8.90;99.90;9.30;99423.00;;;;341666;28;84563;-90
2022/11/29 00:19:12;;;;;;;7.07;4.78;;;8.90;99.90;9.20;99423.00;;;;341392;28;91795;-89
2022/11/29 00:19:24;;;;;;;6.43;4.32;;;8.90;99.90;9.20;99426.00;;;;341570;28;84067;-90
2022/11/29 00:19:36;;;;;;;7.00;4.60;;;8.90;99.90;9.20;99423.00;;;;338639;28;91919;-90
2022/11/29 00:19:48;;;;;;;6.30;4.53;;;8.90;99.90;9.30;99426.00;;;;343154;28;83524;-89
2022/11/29 00:20:00;;;;;;;6.43;4.43;;;8.90;99.90;9.10;99427.00;;;;337303;28;90773;-89
2022/11/29 00:20:12;;;;;;;5.80;3.83;;;8.90;99.90;9.20;99425.00;;;;340411;28;83413;-89
2022/11/29 00:20:24;;;;;;;7.07;3.83;;;8.90;99.90;9.20;99417.00;;;;340003;28;90924;-89
2022/11/29 00:20:37;;;;;;;6.15;3.67;;;8.90;99.90;9.00;99422.00;;;;338965;28;83416;-90
2022/11/29 00:20:49;;;;;;;6.06;3.70;;;8.90;99.90;8.90;99429.00;;;;341000;28;93090;-90
2022/11/29 00:21:06;;;;;;;6.57;3.30;;;8.90;99.90;8.90;99432.00;;;;340350;28;84791;-89
2022/11/29 00:21:18;;;;;;;7.95;3.35;;;8.90;99.90;8.90;99430.00;;;;342731;28;89168;-90
2022/11/29 00:21:29;;;;;;;7.70;3.85;;;8.90;99.90;9.00;99427.00;;;;340322;28;84761;-90
2022/11/29 00:21:41;;;;;;;6.57;3.85;;;8.90;99.90;9.10;99417.00;;;;341440;28;90340;-89
2022/11/29 00:21:53;;;;;;;6.20;3.67;;;8.90;99.90;9.20;99422.00;;;;343250;28;83247;-89
2022/11/29 00:22:05;;;;;;;5.40;3.40;;;8.90;99.90;9.20;99422.00;;;;342953;28;89822;-89
2022/11/29 00:22:17;;;;;;;5.38;3.35;;;8.90;99.90;9.20;99425.00;;;;341979;28;83279;-90
2022/11/29 00:22:29;;;;;;;6.43;3.47;;;8.90;99.90;9.30;99420.00;;;;338921;28;90404;-89
2022/11/29 00:22:40;;;;;;;7.03;3.55;;;8.90;99.90;9.30;99415.00;;;;341738;28;83518;-89
2022/11/29 00:22:52;;;;;;;7.38;3.70;;;8.90;99.90;9.30;99419.00;;;;341525;28;91573;-89
2022/11/29 00:23:04;;;;;;;7.38;3.90;;;8.90;99.90;9.30;99426.00;;;;341829;28;84454;-89
2022/11/29 00:23:16;;;;;;;7.47;3.35;;;9.00;99.90;9.30;99425.00;;;;340113;28;90458;-89
2022/11/29 00:23:28;;;;;;;7.20;3.47;;;9.00;99.90;9.10;99423.00;;;;344406;28;84949;-90
2022/11/29 00:23:39;;;;;;;7.30;3.13;;;9.00;99.90;9.20;99425.00;;;;340160;28;90887;-89
2022/11/29 00:23:51;;;;;;;7.43;3.22;;;9.00;99.90;9.30;99421.00;;;;341889;28;83460;-89
2022/11/29 00:24:04;;;;;;;5.82;3.28;;;9.00;99.90;9.20;99421.00;;;;342785;28;90546;-89
2022/11/29 00:24:16;;;;;;;5.75;3.20;;;9.00;99.90;9.30;99423.00;;;;343285;28;83699;-90
2022/11/29 00:24:30;;;;;;;5.25;3.17;;;9.00;99.90;9.30;99420.00;;;;342825;28;90640;-89
2022/11/29 00:24:42;;;;;;;6.22;3.55;;;9.00;99.90;9.30;99429.00;;;;344513;28;83894;-89
2022/11/29 00:24:54;;;;;;;5.65;3.38;;;9.00;99.90;9.30;99430.00;;;;341470;28;92900;-89
2022/11/29 00:25:06;;;;;;;5.55;3.22;;;9.00;99.90;9.30;99422.00;;;;341861;28;84598;-89
2022/11/29 00:25:19;;;;;;;4.63;2.97;;;9.00;99.90;9.40;99428.00;;;;338734;28;92064;-89
2022/11/29 00:25:31;;;;;;;7.55;3.40;;;9.00;99.90;9.40;99430.00;;;;340460;28;83444;-89
2022/11/29 00:25:42;;;;;;;7.85;3.40;;;9.00;99.90;9.50;99423.00;;;;340083;28;90967;-89
2022/11/29 00:25:54;;;;;;;7.07;3.35;;;9.10;99.90;9.40;99424.00;;;;341681;28;83484;-89
2022/11/29 00:26:06;;;;;;;5.13;3.33;;;9.10;99.90;9.40;99426.00;;;;338467;28;92178;-89
2022/11/29 00:26:18;;;;;;;5.80;3.17;;;9.10;99.90;9.20;99421.00;;;;341779;28;83432;-89
2022/11/29 00:26:30;;;;;;;5.30;2.55;;;9.10;99.90;9.10;99423.00;;;;342603;28;91148;-89
2022/11/29 00:26:42;;;;;;;6.68;2.72;;;9.00;99.90;9.10;99422.00;;;;343008;28;83979;-89
2022/11/29 00:26:54;;;;;;;5.40;2.83;;;9.00;99.90;9.20;99426.00;;;;341053;28;90976;-89
2022/11/29 00:27:05;;;;;;;5.72;3.15;;;9.00;99.90;9.30;99419.00;;;;343131;28;84390;-89
2022/11/29 00:27:17;;;;;;;3.80;2.68;;;9.00;99.90;9.30;99429.00;;;;341390;28;91813;-89
2022/11/29 00:27:29;;;;;;;4.05;2.92;;;9.00;99.90;9.40;99416.00;;;;343104;28;83494;-89
2022/11/29 00:27:41;;;;;;;4.30;3.00;;;9.00;99.90;9.40;99428.00;;;;339970;28;89833;-89
2022/11/29 00:27:53;;;;;;;4.07;2.78;;;9.00;99.90;9.20;99414.00;;;;343099;28;83649;-89
2022/11/29 00:28:04;;;;;;;4.30;2.83;;;9.00;99.90;9.10;99420.00;;;;341331;28;91324;-89
2022/11/29 00:28:16;;;;;;;4.80;2.85;;;9.00;99.90;9.00;99417.00;;;;341725;28;83632;-89
2022/11/29 00:28:28;;;;;;;5.70;3.15;;;9.00;99.90;9.00;99424.00;;;;339964;28;91830;-89
2022/11/29 00:28:40;;;;;;;5.20;2.85;;;9.00;99.90;9.20;99422.00;;;;340318;28;83336;-88
2022/11/29 00:28:52;;;;;;;6.28;3.05;;;9.00;99.90;9.00;99416.00;;;;341172;28;91051;-89
2022/11/29 00:29:04;;;;;;;5.65;3.08;;;9.00;99.90;8.90;99422.00;;;;341674;28;84717;-89
2022/11/29 00:29:17;;;;;;;5.80;3.30;;;8.90;99.90;9.00;99431.00;;;;338594;28;90768;-89
2022/11/29 00:29:29;;;;;;;4.13;2.80;;;8.90;99.90;9.10;99417.00;;;;340327;28;83343;-88
2022/11/29 00:29:41;;;;;;;4.07;2.60;;;8.90;99.90;9.10;99421.00;;;;340059;28;90904;-89
2022/11/29 00:29:52;;;;;;;3.42;2.28;;;8.90;99.90;9.00;99428.00;;;;342865;28;83856;-89
2022/11/29 00:30:05;;;;;;;4.93;2.50;;;8.90;99.90;8.90;99432.00;;;;339840;28;90690;-89
2022/11/29 00:30:20;;;;;;;6.40;3.08;;;8.90;99.90;9.10;99424.00;;;;340518;28;82460;-89
2022/11/29 00:30:32;;;;;;;6.93;3.08;;;8.90;99.90;9.20;99428.00;;;;341159;28;91729;-89
2022/11/29 00:30:43;;;;;;;6.10;2.85;;;8.90;99.90;9.20;99413.00;;;;340305;28;83659;-90
2022/11/29 00:30:55;;;;;;;7.68;3.13;;;8.90;99.90;9.20;99422.00;;;;342688;28;91637;-90
2022/11/29 00:31:29;;;;;;;7.35;3.10;;;8.90;99.90;9.20;99423.00;;;;340297;28;83461;-90
2022/11/29 00:31:41;;;;;;;8.73;2.70;;;8.90;99.90;9.30;99423.00;;;;342670;28;91472;-90
2022/11/29 00:31:53;;;;;;;7.25;2.15;;;8.90;99.90;9.30;99420.00;;;;343024;28;83756;-89
2022/11/29 00:32:05;;;;;;;3.55;2.08;;;9.00;99.90;9.30;99415.00;;;;341396;28;87472;-89
2022/11/29 00:32:17;;;;;;;4.05;2.35;;;9.00;99.90;9.30;99420.00;;;;339069;28;83276;-88
2022/11/29 00:32:28;;;;;;;3.58;2.25;;;9.00;99.90;9.30;99432.00;;;;342545;28;90782;-89
2022/11/29 00:32:40;;;;;;;3.65;2.10;;;9.00;99.90;9.20;99425.00;;;;341647;28;84214;-90
2022/11/29 00:32:52;;;;;;;3.33;1.90;;;9.00;99.90;9.20;99427.00;;;;339748;28;91911;-89
2022/11/29 00:33:04;;;;;;;4.22;1.95;;;9.00;99.90;9.10;99423.00;;;;340386;28;84735;-90
2022/11/29 00:33:16;;;;;;;4.32;2.10;;;9.00;99.90;9.20;99425.00;;;;341241;28;92819;-90
2022/11/29 00:33:28;;;;;;;4.38;2.30;;;8.90;99.90;9.20;99424.00;;;;340206;28;83970;-89
2022/11/29 00:33:40;;;;;;;5.47;1.95;;;9.00;99.90;9.20;99417.00;;;;342754;28;90868;-89
2022/11/29 00:33:52;;;;;;;5.60;1.90;;;9.00;99.90;9.20;99417.00;;;;340335;28;84939;-90
2022/11/29 00:34:05;;;;;;;5.22;2.17;;;9.00;99.90;9.20;99427.00;;;;339940;28;91835;-90
2022/11/29 00:34:17;;;;;;;3.67;1.90;;;9.00;99.90;9.20;99420.00;;;;340290;28;83673;-90
2022/11/29 00:34:29;;;;;;;3.05;1.60;;;9.00;99.90;9.10;99432.00;;;;341370;28;91338;-90
2022/11/29 00:34:41;;;;;;;4.55;1.33;;;9.00;99.90;9.00;99426.00;;;;338946;28;85037;-90
2022/11/29 00:34:53;;;;;;;5.68;1.55;;;8.90;99.90;9.20;99423.00;;;;343765;28;91897;-89
2022/11/29 00:35:10;;;;;;;3.88;1.73;;;8.90;99.90;9.10;99419.00;;;;342985;28;84617;-90
2022/11/29 00:35:21;;;;;;;2.75;1.75;;;9.00;99.90;9.20;99428.00;;;;342545;28;92788;-90
2022/11/29 00:35:33;;;;;;;2.70;1.67;;;8.90;99.90;9.30;99421.00;;;;339128;28;83387;-90
2022/11/29 00:35:45;;;;;;;3.20;1.90;;;9.00;99.90;9.30;99421.00;;;;341567;28;91550;-90
2022/11/29 00:36:00;;;;;;;3.63;1.85;;;9.00;99.90;9.30;99424.00;;;;340539;28;84398;-89
2022/11/29 00:36:12;;;;;;;3.63;2.00;;;9.00;99.90;9.30;99417.00;;;;343040;28;90807;-89
2022/11/29 00:36:24;;;;;;;3.15;1.88;;;9.00;99.90;9.20;99423.00;;;;340547;28;83361;-90
2022/11/29 00:36:36;;;;;;;2.88;1.70;;;9.00;99.90;9.10;99419.00;;;;343010;28;88181;-90
2022/11/29 00:36:47;;;;;;;2.65;1.50;;;9.00;99.90;9.10;99424.00;;;;340481;28;83401;-90
2022/11/29 00:36:59;;;;;;;2.85;1.63;;;9.00;99.90;9.00;99424.00;;;;341548;28;90820;-90
2022/11/29 00:37:12;;;;;;;2.95;1.65;;;8.90;99.90;9.20;99415.00;;;;340620;28;84498;-90
2022/11/29 00:37:23;;;;;;;2.78;1.35;;;8.90;99.90;9.20;99412.00;;;;342893;28;91788;-90
2022/11/29 00:37:35;;;;;;;2.28;1.15;;;8.90;99.90;9.30;99423.00;;;;340591;28;84943;-90
2022/11/29 00:37:47;;;;;;;3.17;1.52;;;9.00;99.90;9.20;99423.00;;;;342928;28;90555;-90
2022/11/29 00:37:59;;;;;;;3.45;1.70;;;9.00;99.90;9.00;99430.00;;;;340469;28;83202;-90
2022/11/29 00:38:11;;;;;;;3.90;1.75;;;8.90;99.90;9.00;99426.00;;;;340060;28;91760;-89
2022/11/29 00:38:22;;;;;;;3.40;1.83;;;8.90;99.90;9.10;99423.00;;;;343190;28;84456;-90
2022/11/29 00:38:34;;;;;;;4.35;2.10;;;8.90;99.90;9.20;99418.00;;;;342807;28;92014;-90
2022/11/29 00:38:46;;;;;;;3.90;1.80;;;8.90;99.90;9.30;99416.00;;;;341829;28;83301;-90
2022/11/29 00:38:58;;;;;;;3.22;1.70;;;8.90;99.90;9.30;99423.00;;;;344229;28;90286;-90
2022/11/29 00:39:10;;;;;;;3.60;1.60;;;9.00;99.90;9.20;99416.00;;;;343285;28;83634;-90
2022/11/29 00:39:23;;;;;;;4.95;1.85;;;8.90;99.90;9.20;99416.00;;;;342762;28;92558;-91
2022/11/29 00:39:35;;;;;;;3.63;1.73;;;8.90;99.90;9.20;99420.00;;;;340401;28;83657;-90
2022/11/29 00:39:47;;;;;;;3.63;1.75;;;8.90;99.90;9.20;99415.00;;;;341543;28;92019;-90
2022/11/29 00:39:59;;;;;;;2.65;1.60;;;8.90;99.90;9.30;99419.00;;;;343078;28;85047;-89
2022/11/29 00:40:11;;;;;;;2.85;1.90;;;8.90;99.90;9.30;99423.00;;;;340309;28;90453;-90
2022/11/29 00:40:23;;;;;;;3.40;1.92;;;8.90;99.90;9.10;99420.00;;;;343176;28;84636;-90
2022/11/29 00:40:35;;;;;;;4.18;1.98;;;9.00;99.90;9.10;99424.00;;;;341502;28;91414;-90
2022/11/29 00:40:51;;;;;;;4.45;1.50;;;8.90;99.90;9.20;99417.00;;;;343231;28;84669;-90
2022/11/29 00:41:03;;;;;;;3.42;1.50;;;8.90;99.90;9.20;99422.00;;;;344215;28;92208;-89
2022/11/29 00:41:15;;;;;;;3.75;2.13;;;8.90;99.90;9.10;99421.00;;;;340775;28;83486;-90
2022/11/29 00:41:26;;;;;;;4.80;2.80;;;8.90;99.90;9.00;99424.00;;;;341471;28;92763;-90
2022/11/29 00:41:38;;;;;;;4.85;2.83;;;8.90;99.90;9.00;99426.00;;;;343393;28;84087;-90
2022/11/29 00:41:50;;;;;;;4.72;2.42;;;8.90;99.90;9.10;99422.00;;;;337755;28;90822;-90
2022/11/29 00:42:02;;;;;;;4.45;1.73;;;8.90;99.90;9.20;99414.00;;;;342123;28;83516;-90
2022/11/29 00:42:14;;;;;;;4.22;1.75;;;8.90;99.90;9.10;99420.00;;;;340451;28;89465;-90
2022/11/29 00:42:26;;;;;;;3.63;1.85;;;8.90;99.90;9.00;99408.00;;;;340592;28;82398;-90
2022/11/29 00:42:38;;;;;;;3.25;2.00;;;8.90;99.90;8.90;99419.00;;;;340261;28;91276;-89
2022/11/29 00:42:49;;;;;;;3.80;2.00;;;8.90;99.90;8.90;99423.00;;;;340517;28;84638;-89
2022/11/29 00:43:01;;;;;;;3.72;2.05;;;8.90;99.90;8.90;99413.00;;;;344105;28;90828;-89
2022/11/29 00:43:13;;;;;;;2.70;1.77;;;8.80;99.90;9.00;99429.00;;;;343176;28;82619;-89
2022/11/29 00:43:25;;;;;;;2.78;1.70;;;8.80;99.90;9.10;99418.00;;;;343926;28;92887;-90
2022/11/29 00:43:37;;;;;;;2.78;1.35;;;8.80;99.90;9.20;99413.00;;;;337987;28;83315;-90
2022/11/29 00:43:48;;;;;;;2.90;1.40;;;8.80;99.90;9.10;99413.00;;;;341566;28;92582;-90
2022/11/29 00:44:00;;;;;;;3.85;1.52;;;8.80;99.90;8.90;99415.00;;;;340513;28;83504;-90
2022/11/29 00:44:12;;;;;;;4.15;2.22;;;8.80;99.90;8.80;99416.00;;;;341600;28;90817;-90
2022/11/29 00:44:30;;;;;;;4.65;2.17;;;8.80;99.90;8.80;99425.00;;;;340467;28;84620;-90
2022/11/29 00:44:42;;;;;;;4.07;1.67;;;8.70;99.90;8.70;99421.00;;;;341570;28;90657;-90
2022/11/29 00:44:54;;;;;;;3.38;1.63;;;8.70;99.90;8.80;99419.00;;;;344697;28;83766;-90
2022/11/29 00:45:07;;;;;;;4.68;1.88;;;8.70;99.90;8.90;99420.00;;;;342925;28;91969;-90
2022/11/29 00:45:19;;;;;;;5.53;1.70;;;8.70;99.90;8.80;99420.00;;;;340423;28;84656;-90
2022/11/29 00:45:30;;;;;;;4.97;1.42;;;8.70;99.90;8.80;99409.00;;;;342762;28;92492;-90
2022/11/29 00:45:42;;;;;;;3.88;1.45;;;8.70;99.90;8.80;99413.00;;;;343220;28;84904;-90
2022/11/29 00:45:54;;;;;;;3.72;1.42;;;8.70;99.90;8.80;99418.00;;;;342831;28;92191;-90
2022/11/29 00:46:06;;;;;;;3.50;1.50;;;8.60;99.90;8.90;99415.00;;;;341767;28;84674;-90
2022/11/29 00:46:18;;;;;;;3.92;1.50;;;8.70;99.90;8.80;99419.00;;;;342587;28;90580;-89
2022/11/29 00:46:30;;;;;;;4.40;1.60;;;8.60;99.90;8.80;99418.00;;;;340180;28;83558;-90
2022/11/29 00:46:42;;;;;;;3.55;1.42;;;8.60;99.90;8.70;99430.00;;;;343973;28;90944;-90
2022/11/29 00:46:54;;;;;;;2.95;1.48;;;8.60;99.90;8.80;99424.00;;;;341675;28;84624;-90
2022/11/29 00:47:05;;;;;;;4.25;1.52;;;8.60;99.90;8.80;99410.00;;;;341109;28;89919;-90
2022/11/29 00:47:17;;;;;;;4.25;1.70;;;8.60;99.90;8.90;99417.00;;;;341654;28;84738;-90
2022/11/29 00:47:29;;;;;;;3.25;1.70;;;8.60;99.90;8.90;99415.00;;;;341256;28;92767;-90
2022/11/29 00:47:41;;;;;;;3.85;1.90;;;8.60;99.90;8.80;99412.00;;;;341643;28;84597;-89
2022/11/29 00:47:53;;;;;;;3.65;1.58;;;8.60;99.90;8.80;99415.00;;;;341328;28;91582;-89
2022/11/29 00:48:05;;;;;;;3.85;1.70;;;8.60;99.90;8.80;99420.00;;;;340329;28;84433;-90
2022/11/29 00:48:17;;;;;;;3.25;1.77;;;8.60;99.90;8.90;99408.00;;;;344097;28;92182;-90
2022/11/29 00:48:29;;;;;;;3.20;1.52;;;8.60;99.90;8.80;99416.00;;;;340295;28;84871;-90
2022/11/29 00:48:41;;;;;;;3.22;1.40;;;8.60;99.90;8.90;99430.00;;;;342386;28;89946;-90
2022/11/29 00:48:53;;;;;;;2.95;1.45;;;8.60;99.90;8.90;99424.00;;;;344447;28;83703;-90
2022/11/29 00:49:05;;;;;;;3.13;1.70;;;8.60;99.90;8.80;99420.00;;;;342726;28;91705;-90
2022/11/29 00:49:16;;;;;;;2.72;1.65;;;8.60;99.90;8.80;99411.00;;;;341583;28;84689;-89
2022/11/29 00:49:28;;;;;;;2.90;1.55;;;8.60;99.90;8.80;99415.00;;;;342641;28;92588;-89
2022/11/29 00:49:40;;;;;;;4.20;1.70;;;8.60;99.90;8.80;99426.00;;;;340335;28;83611;-90
2022/11/29 00:49:52;;;;;;;4.32;1.48;;;8.60;99.90;8.80;99423.00;;;;343990;28;91056;-90
2022/11/29 00:50:05;;;;;;;4.90;1.90;;;8.50;99.90;8.80;99429.00;;;;340196;28;84840;-90
2022/11/29 00:50:17;;;;;;;3.67;1.73;;;8.50;99.90;8.70;99428.00;;;;341403;28;90938;-90
2022/11/29 00:50:29;;;;;;;3.80;1.65;;;8.50;99.90;8.70;99420.00;;;;343076;28;83824;-89
2022/11/29 00:50:41;;;;;;;3.80;1.80;;;8.50;99.90;8.70;99424.00;;;;342613;28;91724;-90
2022/11/29 00:50:52;;;;;;;2.75;1.45;;;8.50;99.90;8.70;99423.00;;;;345736;28;83440;-90
2022/11/29 00:51:05;;;;;;;3.45;1.92;;;8.50;99.90;8.70;99422.00;;;;341278;28;90991;-89
2022/11/29 00:51:17;;;;;;;3.40;1.75;;;8.50;99.90;8.80;99425.00;;;;342974;28;84732;-90
2022/11/29 00:51:28;;;;;;;3.45;1.75;;;8.50;99.90;8.80;99429.00;;;;339920;28;92582;-90
2022/11/29 00:51:40;;;;;;;4.15;1.80;;;8.50;99.90;8.80;99423.00;;;;341672;28;84579;-90
2022/11/29 00:51:52;;;;;;;5.68;1.77;;;8.50;99.90;8.80;99421.00;;;;341352;28;90613;-90
2022/11/29 00:52:04;;;;;;;5.47;1.63;;;8.50;99.90;8.90;99428.00;;;;340380;28;82530;-90
2022/11/29 00:52:16;;;;;;;3.38;1.40;;;8.50;99.90;8.90;99416.00;;;;341375;28;90635;-89
2022/11/29 00:52:28;;;;;;;2.38;1.40;;;8.50;99.90;8.90;99428.00;;;;341772;28;84746;-90
2022/11/29 00:52:40;;;;;;;2.33;1.42;;;8.50;99.90;8.90;99423.00;;;;341214;28;92736;-90
2022/11/29 00:52:52;;;;;;;2.70;1.50;;;8.50;99.90;9.00;99429.00;;;;341555;28;83537;-90
2022/11/29 00:53:03;;;;;;;3.13;1.40;;;8.60;99.90;9.00;99427.00;;;;344059;28;92032;-89
2022/11/29 00:53:15;;;;;;;2.92;1.15;;;8.60;99.90;9.00;99425.00;;;;344275;28;83278;-89
2022/11/29 00:53:27;;;;;;;3.20;1.13;;;8.60;99.90;9.00;99430.00;;;;342531;28;91252;-90
2022/11/29 00:53:39;;;;;;;2.88;1.33;;;8.60;99.90;8.90;99433.00;;;;343146;28;83304;-89
2022/11/29 00:53:51;;;;;;;3.70;1.70;;;8.60;99.90;8.80;99426.00;;;;344017;28;91809;-90
2022/11/29 00:54:04;;;;;;;4.68;1.80;;;8.60;99.90;8.90;99435.00;;;;342936;28;83570;-90
2022/11/29 00:54:15;;;;;;;4.05;1.42;;;8.60;99.90;9.00;99428.00;;;;341338;28;90627;-89
2022/11/29 00:54:27;;;;;;;5.10;1.55;;;8.60;99.90;9.00;99431.00;;;;339040;28;83495;-90
2022/11/29 00:54:39;;;;;;;4.43;1.40;;;8.60;99.90;8.80;99433.00;;;;343928;28;90319;-90
2022/11/29 00:54:51;;;;;;;2.85;1.20;;;8.60;99.90;8.80;99418.00;;;;340396;28;83275;-90
2022/11/29 00:55:03;;;;;;;2.13;1.15;;;8.60;99.90;8.80;99421.00;;;;341293;28;91717;-90
2022/11/29 00:55:15;;;;;;;2.65;1.15;;;8.60;99.90;8.80;99430.00;;;;340244;28;84690;-89
2022/11/29 00:55:27;;;;;;;2.78;1.10;;;8.60;99.90;8.80;99431.00;;;;342629;28;92929;-89
2022/11/29 00:55:39;;;;;;;4.40;1.20;;;8.60;99.90;8.70;99421.00;;;;337548;28;83549;-90
2022/11/29 00:55:51;;;;;;;5.97;1.40;;;8.50;99.90;8.70;99423.00;;;;340036;28;92082;-90
2022/11/29 00:56:03;;;;;;;5.00;1.20;;;8.50;99.90;8.80;99424.00;;;;340182;28;83534;-90
2022/11/29 00:56:15;;;;;;;2.65;0.90;;;8.50;99.90;8.80;99428.00;;;;339983;28;91571;-89
2022/11/29 00:56:27;;;;;;;2.70;0.98;;;8.50;99.90;8.70;99425.00;;;;339053;28;84021;-90
2022/11/29 00:56:38;;;;;;;3.00;1.10;;;8.50;99.90;8.80;99426.00;;;;342533;28;91582;-89
2022/11/29 00:56:51;;;;;;;3.28;1.17;;;8.50;99.90;8.70;99429.00;;;;340369;28;84378;-90
2022/11/29 00:57:03;;;;;;;3.00;1.23;;;8.50;99.90;8.70;99418.00;;;;341347;28;90748;-90
2022/11/29 00:57:15;;;;;;;3.20;1.25;;;8.50;99.90;8.70;99429.00;;;;338989;28;83800;-90
2022/11/29 00:57:26;;;;;;;3.10;1.48;;;8.50;99.90;8.80;99426.00;;;;340956;28;92010;-90